Time;durP1;ratioP1;P1;durP2;ratioP2;P2;SDS_P1;SDS_P2;PMS_P1;PMS_P2;Temp;Humidity;BMP_temperature;BMP_pressure;BME280_temperature;BME280_humidity;BME280_pressure;Samples;Min_cycle;Max_cycle;Signal;HPM_P1;HPM_P2
2022/07/23 00:01:11;;;;;;;1.70;1.60;;;18.50;98.20;;;;;;6093671;23;20538;-76
2022/07/23 00:03:38;;;;;;;1.50;1.20;;;18.40;98.20;;;;;;6112814;23;20418;-77
2022/07/23 00:06:06;;;;;;;1.50;0.90;;;18.40;98.20;;;;;;6094461;23;20449;-75
2022/07/23 00:08:34;;;;;;;1.50;0.90;;;18.40;98.20;;;;;;6095351;23;20497;-76
2022/07/23 00:11:01;;;;;;;1.50;0.90;;;18.30;98.20;;;;;;6083928;23;20422;-76
2022/07/23 00:13:28;;;;;;;1.50;1.00;;;18.30;98.20;;;;;;6115345;23;20428;-77
2022/07/23 00:15:56;;;;;;;1.50;1.10;;;18.30;98.20;;;;;;6082756;23;20474;-76
2022/07/23 00:18:23;;;;;;;1.50;0.90;;;18.40;98.20;;;;;;6116764;23;20418;-75
2022/07/23 00:20:50;;;;;;;1.50;1.00;;;18.40;98.20;;;;;;6081788;23;20422;-76
2022/07/23 00:23:18;;;;;;;1.50;0.90;;;18.50;98.20;;;;;;6118260;23;20450;-76
2022/07/23 00:25:46;;;;;;;1.50;0.90;;;18.50;98.20;;;;;;6095692;23;20446;-76
2022/07/23 00:28:13;;;;;;;1.50;0.90;;;18.40;98.20;;;;;;6095680;23;20497;-76
2022/07/23 00:30:40;;;;;;;1.50;0.90;;;18.40;98.20;;;;;;6096584;23;20430;-76
2022/07/23 00:33:09;;;;;;;1.47;0.90;;;18.50;98.20;;;;;;6103482;23;20485;-77
2022/07/23 00:35:40;;;;;;;1.50;0.90;;;18.50;98.20;;;;;;6093311;23;20529;-76
2022/07/23 00:38:08;;;;;;;1.50;0.90;;;18.50;98.20;;;;;;6103267;23;20770;-77
2022/07/23 00:40:35;;;;;;;1.47;0.90;;;18.40;98.20;;;;;;6094747;23;20510;-76
2022/07/23 00:43:04;;;;;;;1.50;0.90;;;18.30;98.20;;;;;;6102862;23;20516;-76
2022/07/23 00:45:32;;;;;;;1.43;0.90;;;18.30;98.20;;;;;;6094287;23;20793;-76
2022/07/23 00:48:00;;;;;;;1.50;1.00;;;18.20;98.20;;;;;;6104002;23;20537;-75
2022/07/23 00:50:27;;;;;;;1.50;0.90;;;18.20;98.20;;;;;;6104647;23;20469;-76
2022/07/23 00:52:54;;;;;;;1.50;0.90;;;18.30;98.20;;;;;;6102888;23;20485;-76
2022/07/23 00:55:21;;;;;;;1.50;1.00;;;18.30;98.20;;;;;;6103455;23;20500;-77
2022/07/23 00:57:48;;;;;;;1.50;0.97;;;18.30;98.20;;;;;;6094094;23;20506;-76
2022/07/23 01:00:17;;;;;;;1.50;1.00;;;18.30;98.20;;;;;;6094473;23;20434;-77
2022/07/23 01:02:44;;;;;;;1.50;0.90;;;18.30;98.20;;;;;;6094979;23;20956;-75
2022/07/23 01:05:11;;;;;;;1.50;0.90;;;18.30;98.20;;;;;;6094295;23;20442;-75
2022/07/23 01:07:38;;;;;;;1.40;0.90;;;18.30;98.20;;;;;;6103685;23;20445;-76
2022/07/23 01:10:30;;;;;;;1.50;0.90;;;18.30;98.20;;;;;;6095475;23;20446;-77
2022/07/23 01:12:55;;;;;;;1.50;1.00;;;18.30;98.20;;;;;;6101706;23;20481;-74
2022/07/23 01:15:25;;;;;;;1.50;0.90;;;18.40;98.20;;;;;;6094235;23;20757;-75
2022/07/23 01:17:52;;;;;;;1.50;0.90;;;18.40;98.20;;;;;;6103457;23;20586;-75
2022/07/23 01:20:19;;;;;;;1.50;0.90;;;18.40;98.20;;;;;;6094407;23;20422;-76
2022/07/23 01:22:48;;;;;;;1.57;1.13;;;18.40;98.20;;;;;;6092809;23;20427;-76
2022/07/23 01:25:18;;;;;;;1.40;0.90;;;18.50;98.20;;;;;;6094367;23;20446;-76
2022/07/23 01:27:45;;;;;;;1.50;0.90;;;18.50;98.20;;;;;;6102108;23;20452;-75
2022/07/23 01:30:15;;;;;;;1.50;0.90;;;18.50;98.20;;;;;;6093004;23;20423;-79
2022/07/23 01:32:42;;;;;;;1.50;0.90;;;18.50;98.20;;;;;;6100065;23;20461;-76
2022/07/23 01:35:10;;;;;;;1.50;1.20;;;18.50;98.20;;;;;;6110271;23;20423;-75
2022/07/23 01:37:41;;;;;;;1.50;0.90;;;18.50;98.20;;;;;;6109117;23;20445;-76
2022/07/23 01:40:11;;;;;;;1.50;0.90;;;18.50;98.20;;;;;;6101236;23;20518;-75
2022/07/23 01:42:38;;;;;;;1.43;0.90;;;18.50;98.20;;;;;;6107378;23;20453;-76
2022/07/23 01:45:06;;;;;;;1.50;1.00;;;18.50;98.20;;;;;;6111255;23;20427;-77
2022/07/23 01:47:33;;;;;;;1.50;0.90;;;18.40;98.20;;;;;;6099264;23;20469;-75
2022/07/23 01:50:00;;;;;;;1.47;0.90;;;18.40;98.20;;;;;;6094906;23;20450;-76
2022/07/23 01:52:28;;;;;;;1.50;0.90;;;18.40;98.20;;;;;;6096383;23;21027;-76
2022/07/23 01:54:55;;;;;;;1.50;0.90;;;18.30;98.20;;;;;;6096209;23;20426;-76
2022/07/23 01:57:24;;;;;;;1.50;0.90;;;18.30;98.20;;;;;;6097165;23;20473;-76
2022/07/23 01:59:50;;;;;;;1.50;0.90;;;18.20;98.20;;;;;;6097934;23;20431;-76
2022/07/23 02:02:18;;;;;;;1.50;1.00;;;18.20;98.20;;;;;;6094996;23;20533;-76
2022/07/23 02:04:45;;;;;;;1.50;0.90;;;18.10;98.20;;;;;;6097442;23;20427;-76
2022/07/23 02:07:12;;;;;;;1.50;0.90;;;18.10;98.20;;;;;;6094622;23;20805;-75
2022/07/23 02:09:39;;;;;;;1.50;1.00;;;18.10;98.20;;;;;;6099793;23;20423;-75
2022/07/23 02:12:06;;;;;;;1.50;1.00;;;18.00;98.20;;;;;;6089862;23;20500;-76
2022/07/23 02:14:35;;;;;;;1.50;0.90;;;18.00;98.20;;;;;;6100364;23;20478;-74
2022/07/23 02:17:01;;;;;;;1.50;1.00;;;18.00;98.20;;;;;;6093781;23;20500;-74
2022/07/23 02:19:29;;;;;;;1.50;0.90;;;17.90;98.20;;;;;;6100896;23;20419;-75
2022/07/23 02:21:56;;;;;;;1.50;0.90;;;17.90;98.20;;;;;;6090476;23;20537;-75
2022/07/23 02:24:23;;;;;;;1.50;0.90;;;17.80;98.20;;;;;;6102041;23;20482;-76
2022/07/23 02:26:50;;;;;;;1.50;0.90;;;17.80;98.20;;;;;;6092405;23;20853;-76
2022/07/23 02:29:17;;;;;;;1.50;0.90;;;17.80;98.20;;;;;;6093265;23;20458;-76
2022/07/23 02:31:46;;;;;;;1.50;0.90;;;17.70;98.20;;;;;;6088032;23;20878;-76
2022/07/23 02:34:13;;;;;;;1.50;1.00;;;17.70;98.20;;;;;;6103653;23;20767;-76
2022/07/23 02:36:40;;;;;;;1.50;0.90;;;17.70;98.20;;;;;;6101307;23;20451;-74
2022/07/23 02:39:08;;;;;;;1.50;1.00;;;17.70;98.20;;;;;;6092914;23;20455;-76
2022/07/23 02:41:35;;;;;;;1.50;0.90;;;17.70;98.20;;;;;;6087862;23;20454;-75
2022/07/23 02:44:02;;;;;;;1.50;0.90;;;17.60;98.20;;;;;;6105789;23;20423;-75
2022/07/23 02:46:29;;;;;;;1.50;1.00;;;17.60;98.20;;;;;;6091483;23;20906;-75
2022/07/23 02:48:59;;;;;;;1.50;0.90;;;17.60;98.20;;;;;;6106652;23;20445;-75
2022/07/23 02:51:26;;;;;;;1.50;0.90;;;17.60;98.20;;;;;;6091428;23;20434;-75
2022/07/23 02:53:53;;;;;;;1.50;0.90;;;17.50;98.20;;;;;;6090788;23;20496;-75
2022/07/23 02:56:20;;;;;;;1.50;0.90;;;17.50;98.20;;;;;;6092696;23;20443;-75
2022/07/23 02:58:46;;;;;;;1.50;1.00;;;17.50;98.20;;;;;;6093857;23;20807;-75
2022/07/23 03:01:13;;;;;;;1.50;1.00;;;17.50;98.20;;;;;;6082302;23;20813;-76
2022/07/23 03:03:41;;;;;;;1.50;1.00;;;17.50;98.20;;;;;;6109714;23;20491;-75
2022/07/23 03:06:09;;;;;;;1.50;0.90;;;17.40;98.20;;;;;;6081362;23;20449;-76
2022/07/23 03:08:36;;;;;;;1.50;0.90;;;17.40;98.20;;;;;;6110245;23;20457;-75
2022/07/23 03:11:03;;;;;;;1.50;0.90;;;17.40;98.20;;;;;;6078051;23;20913;-75
2022/07/23 03:13:30;;;;;;;1.50;1.00;;;17.40;98.20;;;;;;6112108;23;20509;-77
2022/07/23 03:15:57;;;;;;;1.50;0.90;;;17.40;98.20;;;;;;6101936;23;20530;-74
2022/07/23 03:18:24;;;;;;;1.60;1.10;;;17.30;98.20;;;;;;6092212;23;20418;-74
2022/07/23 03:20:54;;;;;;;1.50;1.00;;;17.30;98.20;;;;;;6079217;23;20490;-74
2022/07/23 03:23:22;;;;;;;1.50;1.00;;;17.30;98.20;;;;;;6115739;23;20431;-75
2022/07/23 03:25:49;;;;;;;1.50;0.90;;;17.30;98.20;;;;;;6095215;23;20470;-75
2022/07/23 03:28:17;;;;;;;1.50;0.90;;;17.30;98.20;;;;;;6095530;23;20525;-75
2022/07/23 03:30:46;;;;;;;1.50;0.90;;;17.30;98.20;;;;;;6093644;23;20987;-75
2022/07/23 03:33:13;;;;;;;1.50;0.90;;;17.20;98.20;;;;;;6079227;23;20758;-77
2022/07/23 03:35:44;;;;;;;1.50;0.90;;;17.20;98.20;;;;;;6095912;23;20470;-75
2022/07/23 03:38:20;;;;;;;1.50;0.97;;;17.20;98.20;;;;;;6087345;23;20449;-75
2022/07/23 03:40:50;;;;;;;1.50;0.90;;;17.20;98.20;;;;;;6093936;23;20429;-76
2022/07/23 03:43:18;;;;;;;1.50;1.00;;;17.20;98.20;;;;;;6124620;23;20426;-76
2022/07/23 03:45:45;;;;;;;1.50;1.00;;;17.20;98.20;;;;;;6096567;23;20450;-76
2022/07/23 03:48:13;;;;;;;1.50;0.90;;;17.20;98.20;;;;;;6081055;23;20491;-75
2022/07/23 03:50:40;;;;;;;1.50;1.00;;;17.20;98.20;;;;;;6095944;23;20423;-76
2022/07/23 03:53:07;;;;;;;1.50;1.00;;;17.20;98.20;;;;;;6102888;23;20450;-78
2022/07/23 03:55:34;;;;;;;1.53;1.00;;;17.20;98.20;;;;;;6094856;23;20465;-77
2022/07/23 03:58:02;;;;;;;1.53;1.00;;;17.20;98.20;;;;;;6095407;23;20422;-76
2022/07/23 04:00:29;;;;;;;1.50;1.00;;;17.10;98.20;;;;;;6091461;23;20517;-77
2022/07/23 04:02:57;;;;;;;1.50;1.00;;;17.10;98.20;;;;;;6094194;23;20423;-78
2022/07/23 04:05:26;;;;;;;1.50;0.93;;;17.20;98.20;;;;;;6095302;23;20470;-76
2022/07/23 04:07:54;;;;;;;1.50;0.93;;;17.20;98.20;;;;;;6104220;23;20876;-76
2022/07/23 04:10:21;;;;;;;1.50;0.93;;;17.10;98.20;;;;;;6091815;23;20434;-77
2022/07/23 04:12:49;;;;;;;1.50;1.00;;;17.10;98.20;;;;;;6102763;23;20454;-76
2022/07/23 04:15:17;;;;;;;1.50;1.00;;;17.10;98.20;;;;;;6095383;23;20651;-76
2022/07/23 04:17:44;;;;;;;1.60;1.00;;;17.10;98.20;;;;;;6102994;23;20456;-75
2022/07/23 04:20:12;;;;;;;1.50;0.90;;;17.20;98.20;;;;;;6094619;23;20418;-76
2022/07/23 04:22:40;;;;;;;1.50;1.00;;;17.20;98.20;;;;;;6097301;23;20422;-76
2022/07/23 04:25:08;;;;;;;1.50;0.90;;;17.20;98.20;;;;;;6099089;23;20522;-75
2022/07/23 04:27:35;;;;;;;1.50;0.90;;;17.20;98.20;;;;;;6102268;23;20457;-76
2022/07/23 04:30:02;;;;;;;1.50;0.90;;;17.20;98.20;;;;;;6097277;23;20450;-75
2022/07/23 04:32:31;;;;;;;1.50;1.00;;;17.20;98.20;;;;;;6103818;23;20464;-75
2022/07/23 04:34:58;;;;;;;1.50;1.00;;;17.20;98.20;;;;;;6094437;23;20423;-76
2022/07/23 04:37:28;;;;;;;1.50;0.90;;;17.30;98.20;;;;;;6101655;23;20517;-76
2022/07/23 04:39:56;;;;;;;1.50;1.00;;;17.30;98.20;;;;;;6100206;23;20477;-77
2022/07/23 04:42:23;;;;;;;1.50;1.00;;;17.30;98.20;;;;;;6100052;23;20449;-77
2022/07/23 04:44:50;;;;;;;1.50;1.00;;;17.30;98.20;;;;;;6099681;23;20423;-75
2022/07/23 04:47:18;;;;;;;1.50;0.90;;;17.30;98.20;;;;;;6101085;23;20497;-76
2022/07/23 04:49:48;;;;;;;1.50;1.00;;;17.40;98.20;;;;;;6101353;23;20446;-77
2022/07/23 04:52:16;;;;;;;1.50;0.90;;;17.40;98.20;;;;;;6096411;23;20485;-75
2022/07/23 04:54:43;;;;;;;1.50;0.90;;;17.40;98.20;;;;;;6100330;23;20453;-76
2022/07/23 04:57:10;;;;;;;1.50;0.90;;;17.50;98.20;;;;;;6101210;23;20462;-75
2022/07/23 04:59:37;;;;;;;1.50;0.90;;;17.50;98.20;;;;;;6094525;23;20422;-75
2022/07/23 05:02:05;;;;;;;1.50;0.90;;;17.60;98.20;;;;;;6095822;23;20449;-76
2022/07/23 05:04:32;;;;;;;1.50;0.90;;;17.60;98.20;;;;;;6102617;23;20433;-77
2022/07/23 05:07:01;;;;;;;1.50;1.00;;;17.70;98.20;;;;;;6095367;23;20973;-75
2022/07/23 05:09:28;;;;;;;1.53;1.00;;;17.80;98.20;;;;;;6096827;23;20489;-75
2022/07/23 05:12:01;;;;;;;1.57;1.00;;;17.90;98.20;;;;;;6093580;23;20430;-75
2022/07/23 05:14:29;;;;;;;1.50;0.90;;;18.00;98.20;;;;;;6094957;23;21300;-76
2022/07/23 05:16:59;;;;;;;1.50;0.90;;;18.10;98.20;;;;;;6094468;23;20460;-76
2022/07/23 05:19:27;;;;;;;1.50;0.90;;;18.30;98.20;;;;;;6115667;23;20762;-76
2022/07/23 05:21:54;;;;;;;1.50;0.90;;;18.40;98.20;;;;;;6095029;23;20811;-75
2022/07/23 05:24:23;;;;;;;1.50;1.00;;;18.50;98.20;;;;;;6105142;23;20423;-76
2022/07/23 05:26:52;;;;;;;1.50;0.90;;;18.70;98.20;;;;;;6095201;23;20901;-74
2022/07/23 05:29:20;;;;;;;1.50;0.90;;;18.90;98.20;;;;;;6094214;23;20446;-75
2022/07/23 05:31:48;;;;;;;1.50;0.90;;;19.00;98.20;;;;;;6093209;23;20422;-76
2022/07/23 05:34:15;;;;;;;1.50;0.90;;;19.20;98.20;;;;;;6094311;23;20422;-76
2022/07/23 05:36:42;;;;;;;1.50;0.90;;;19.40;98.20;;;;;;6091429;23;20463;-76
2022/07/23 05:39:10;;;;;;;1.50;1.00;;;19.40;98.20;;;;;;6106779;23;20433;-76
2022/07/23 05:41:39;;;;;;;1.50;0.90;;;19.40;98.20;;;;;;6094050;23;20493;-77
2022/07/23 05:44:06;;;;;;;1.50;0.90;;;19.50;98.20;;;;;;6096960;23;20432;-76
2022/07/23 05:46:34;;;;;;;1.50;0.90;;;19.60;98.20;;;;;;6089567;23;20529;-75
2022/07/23 05:49:01;;;;;;;1.50;0.90;;;19.70;98.20;;;;;;6110166;23;20713;-76
2022/07/23 05:51:28;;;;;;;1.50;0.90;;;19.80;98.20;;;;;;6094713;23;20481;-76
2022/07/23 05:53:56;;;;;;;1.60;1.10;;;19.80;98.20;;;;;;6096064;23;20426;-75
2022/07/23 05:56:23;;;;;;;1.50;0.90;;;19.90;98.20;;;;;;6088228;23;20513;-75
2022/07/23 05:58:52;;;;;;;1.50;0.90;;;20.10;98.20;;;;;;6111769;23;20799;-76
2022/07/23 06:01:19;;;;;;;1.50;0.90;;;20.20;98.20;;;;;;6087458;23;20480;-76
2022/07/23 06:03:47;;;;;;;1.50;0.90;;;20.40;98.20;;;;;;6110710;23;20434;-76
2022/07/23 06:06:14;;;;;;;1.50;0.90;;;20.60;98.20;;;;;;6084675;23;20488;-75
2022/07/23 06:08:41;;;;;;;1.57;1.07;;;20.90;98.20;;;;;;6112986;23;20480;-75
2022/07/23 06:11:08;;;;;;;1.50;0.90;;;21.10;98.20;;;;;;6092132;23;20427;-76
2022/07/23 06:13:35;;;;;;;1.50;0.90;;;21.20;98.20;;;;;;6093886;23;20698;-77
2022/07/23 06:16:05;;;;;;;1.60;1.10;;;21.40;98.20;;;;;;6093720;23;20557;-77
2022/07/23 06:18:32;;;;;;;1.50;0.90;;;21.50;98.20;;;;;;6095080;23;20426;-78
2022/07/23 06:21:00;;;;;;;1.53;1.00;;;21.60;98.20;;;;;;6080880;23;20510;-77
2022/07/23 06:23:32;;;;;;;1.50;0.90;;;21.80;98.20;;;;;;6119090;23;20470;-78
2022/07/23 06:26:01;;;;;;;1.50;0.90;;;21.90;98.20;;;;;;6107619;23;20476;-77
2022/07/23 06:28:28;;;;;;;1.50;0.90;;;22.00;98.20;;;;;;6097356;23;20407;-76
2022/07/23 06:30:56;;;;;;;1.50;0.90;;;22.00;98.20;;;;;;6093174;23;20482;-77
2022/07/23 06:33:24;;;;;;;1.50;0.90;;;22.00;98.20;;;;;;6103219;23;20418;-76
2022/07/23 06:35:51;;;;;;;1.50;0.90;;;22.10;98.20;;;;;;6080581;23;20470;-77
2022/07/23 06:38:18;;;;;;;1.50;0.90;;;22.10;98.20;;;;;;6116610;23;20427;-77
2022/07/23 06:41:00;;;;;;;1.50;0.90;;;22.30;98.20;;;;;;6097384;23;20494;-77
2022/07/23 06:43:27;;;;;;;1.50;0.90;;;22.30;98.20;;;;;;6091337;23;20435;-77
2022/07/23 06:45:55;;;;;;;1.50;0.90;;;22.20;98.20;;;;;;6082474;23;20984;-77
2022/07/23 06:48:22;;;;;;;1.50;0.90;;;22.20;98.20;;;;;;6119105;23;20550;-78
2022/07/23 06:50:52;;;;;;;1.50;0.90;;;22.20;98.20;;;;;;6094009;23;20525;-78
2022/07/23 06:53:19;;;;;;;1.50;0.90;;;22.00;98.20;;;;;;6118390;23;20431;-79
2022/07/23 06:55:48;;;;;;;1.50;0.90;;;21.90;98.20;;;;;;6105302;23;20443;-76
2022/07/23 06:58:16;;;;;;;1.50;0.90;;;21.80;98.20;;;;;;6097160;23;20450;-76
2022/07/23 07:00:43;;;;;;;1.50;0.87;;;21.80;98.20;;;;;;6104955;23;21050;-78
2022/07/23 07:03:10;;;;;;;1.50;0.90;;;21.80;98.20;;;;;;6099662;23;20566;-76
2022/07/23 07:05:39;;;;;;;1.50;0.90;;;21.80;98.20;;;;;;6094676;23;20549;-79
2022/07/23 07:08:08;;;;;;;1.50;0.90;;;21.90;98.20;;;;;;6097320;23;20478;-77
2022/07/23 07:10:38;;;;;;;1.50;0.90;;;21.80;98.20;;;;;;6093488;23;20450;-80
2022/07/23 07:13:08;;;;;;;1.50;0.90;;;21.90;98.20;;;;;;6104305;23;20460;-78
2022/07/23 07:15:36;;;;;;;1.50;0.90;;;22.10;98.20;;;;;;6093995;23;20442;-77
2022/07/23 07:18:03;;;;;;;1.50;0.90;;;22.40;98.20;;;;;;6095569;23;20429;-76
2022/07/23 07:20:31;;;;;;;5.23;1.57;;;22.50;98.20;;;;;;6097695;23;20493;-77
2022/07/23 07:22:59;;;;;;;1.87;1.67;;;22.50;98.20;;;;;;6103940;23;20449;-77
2022/07/23 07:25:27;;;;;;;1.50;0.90;;;22.50;98.20;;;;;;6095171;23;20447;-78
2022/07/23 07:27:54;;;;;;;1.50;0.90;;;22.50;98.20;;;;;;6103640;23;20481;-77
2022/07/23 07:30:27;;;;;;;1.50;0.90;;;22.60;98.20;;;;;;6097377;23;20454;-78
2022/07/23 07:32:54;;;;;;;1.50;0.90;;;22.60;98.20;;;;;;6105562;23;20464;-78
2022/07/23 07:35:22;;;;;;;1.50;0.90;;;22.60;98.20;;;;;;6096732;23;20449;-78
2022/07/23 07:37:49;;;;;;;1.50;0.83;;;22.60;98.20;;;;;;6104671;23;20505;-77
2022/07/23 07:40:18;;;;;;;1.50;0.90;;;22.50;98.20;;;;;;6097713;23;20426;-76
2022/07/23 07:42:49;;;;;;;1.50;0.90;;;22.50;98.20;;;;;;6092629;23;20509;-78
2022/07/23 07:45:17;;;;;;;1.50;0.90;;;22.60;98.20;;;;;;6104035;23;20498;-77
2022/07/23 07:47:44;;;;;;;1.50;0.90;;;22.80;98.20;;;;;;6094188;23;20433;-76
2022/07/23 07:50:11;;;;;;;1.50;0.90;;;23.10;98.20;;;;;;6092938;23;20454;-76
2022/07/23 07:52:39;;;;;;;1.50;0.90;;;23.10;98.20;;;;;;6097488;23;20449;-76
2022/07/23 07:55:08;;;;;;;1.50;0.90;;;23.30;98.20;;;;;;6088028;23;20427;-76
2022/07/23 07:57:35;;;;;;;1.50;0.90;;;23.40;98.20;;;;;;6096250;23;20500;-77
2022/07/23 08:00:05;;;;;;;1.50;0.90;;;23.50;98.10;;;;;;6101298;23;20417;-76
2022/07/23 08:02:45;;;;;;;1.50;0.90;;;23.70;97.20;;;;;;6097920;23;20463;-78
2022/07/23 08:05:12;;;;;;;1.50;0.90;;;23.90;95.90;;;;;;6094376;23;20523;-77
2022/07/23 08:07:39;;;;;;;1.50;0.90;;;24.10;96.50;;;;;;6097686;23;20454;-76
2022/07/23 08:10:08;;;;;;;1.50;0.90;;;24.10;95.30;;;;;;6091971;23;21002;-77
2022/07/23 08:12:44;;;;;;;1.50;0.90;;;24.00;94.30;;;;;;6100002;23;20515;-76
2022/07/23 08:15:14;;;;;;;1.50;0.90;;;23.90;96.50;;;;;;6103698;23;20897;-77
2022/07/23 08:17:42;;;;;;;1.53;1.00;;;23.90;95.60;;;;;;6102220;23;20428;-77
2022/07/23 08:20:11;;;;;;;1.50;0.80;;;23.90;94.50;;;;;;6093072;23;20430;-77
2022/07/23 08:22:49;;;;;;;3.60;3.33;;;23.90;94.70;;;;;;6098986;23;20548;-79
2022/07/23 08:25:17;;;;;;;1.50;0.90;;;23.80;94.30;;;;;;6102475;23;20545;-77
2022/07/23 08:27:44;;;;;;;1.50;0.90;;;23.90;95.80;;;;;;6098716;23;20523;-77
2022/07/23 08:30:13;;;;;;;1.50;0.90;;;24.20;94.00;;;;;;6090813;23;21058;-76
2022/07/23 08:32:55;;;;;;;1.50;0.90;;;24.50;92.60;;;;;;6095831;23;20500;-78
2022/07/23 08:35:28;;;;;;;1.50;0.90;;;24.70;93.20;;;;;;6083188;23;20451;-77
2022/07/23 08:37:56;;;;;;;1.60;1.00;;;24.90;93.90;;;;;;6097174;23;20913;-78
2022/07/23 08:40:26;;;;;;;1.50;0.80;;;25.00;90.40;;;;;;6090263;23;20465;-76
2022/07/23 08:42:55;;;;;;;1.50;0.90;;;25.00;90.10;;;;;;6107858;23;20453;-75
2022/07/23 08:45:25;;;;;;;1.50;0.90;;;25.10;91.20;;;;;;6092744;23;20539;-76
2022/07/23 08:47:55;;;;;;;1.50;0.90;;;25.30;88.90;;;;;;6102382;23;20544;-75
2022/07/23 08:50:23;;;;;;;1.50;0.83;;;25.40;88.10;;;;;;6090758;23;20971;-75
2022/07/23 08:52:51;;;;;;;1.50;0.90;;;25.60;89.20;;;;;;6087358;23;20427;-76
2022/07/23 08:55:19;;;;;;;1.57;1.10;;;25.90;89.60;;;;;;6088627;23;20448;-75
2022/07/23 08:57:50;;;;;;;1.50;0.90;;;26.00;87.20;;;;;;6090824;23;20979;-75
2022/07/23 09:00:18;;;;;;;1.50;0.83;;;26.20;86.60;;;;;;6089675;23;20801;-76
2022/07/23 09:02:48;;;;;;;1.47;0.80;;;26.30;87.60;;;;;;6097609;23;20453;-76
2022/07/23 09:05:16;;;;;;;1.50;0.90;;;26.50;86.70;;;;;;6091035;23;20445;-76
2022/07/23 09:08:10;;;;;;;1.50;0.80;;;26.60;86.50;;;;;;6088946;23;20807;-75
2022/07/23 09:10:50;;;;;;;1.50;0.80;;;26.80;85.10;;;;;;6090220;23;20460;-76
2022/07/23 09:13:43;;;;;;;1.50;0.80;;;27.00;84.10;;;;;;6072627;23;20705;-77
2022/07/23 09:16:13;;;;;;;1.47;0.80;;;27.20;85.90;;;;;;6088279;23;20456;-75
2022/07/23 09:18:45;;;;;;;1.50;0.80;;;27.20;84.70;;;;;;6108075;23;20426;-76
2022/07/23 09:21:22;;;;;;;1.50;0.80;;;27.30;81.90;;;;;;6091142;23;20473;-76
2022/07/23 09:23:56;;;;;;;1.60;1.10;;;27.40;81.30;;;;;;6111615;23;20411;-76
2022/07/23 09:26:31;;;;;;;1.50;0.80;;;27.40;81.70;;;;;;6089713;23;20509;-76
2022/07/23 09:29:02;;;;;;;1.50;0.80;;;27.50;82.60;;;;;;6091016;23;20799;-74
2022/07/23 09:31:34;;;;;;;1.50;0.90;;;27.60;80.50;;;;;;6084063;23;20508;-75
2022/07/23 09:34:11;;;;;;;1.50;0.80;;;27.70;82.60;;;;;;6105399;23;20422;-76
2022/07/23 09:36:39;;;;;;;1.50;0.90;;;27.90;81.20;;;;;;6090993;23;20984;-76
2022/07/23 09:39:08;;;;;;;1.50;0.80;;;27.90;79.30;;;;;;6090474;23;20426;-75
2022/07/23 09:41:38;;;;;;;1.50;0.87;;;27.90;81.40;;;;;;6084545;23;20455;-75
2022/07/23 09:44:15;;;;;;;1.50;0.80;;;28.00;79.10;;;;;;6102500;23;20422;-76
2022/07/23 09:46:44;;;;;;;1.50;0.90;;;28.20;79.30;;;;;;6090263;23;20492;-74
2022/07/23 09:49:15;;;;;;;1.47;0.80;;;28.40;77.60;;;;;;6090291;23;20426;-76
2022/07/23 09:51:54;;;;;;;1.47;0.80;;;28.40;76.90;;;;;;6091405;23;20473;-80
2022/07/23 09:54:35;;;;;;;1.47;0.80;;;28.60;79.70;;;;;;6104832;23;20425;-76
2022/07/23 09:57:10;;;;;;;1.47;0.80;;;28.70;76.40;;;;;;6098420;23;20449;-77
2022/07/23 09:59:40;;;;;;;1.47;0.80;;;28.70;75.90;;;;;;6110364;23;20413;-77
2022/07/23 10:02:11;;;;;;;1.50;1.10;;;28.40;74.20;;;;;;6092203;23;20453;-76
2022/07/23 10:04:41;;;;;;;1.47;0.83;;;28.40;76.40;;;;;;6109868;23;20433;-76
2022/07/23 10:07:10;;;;;;;1.43;0.80;;;28.40;77.30;;;;;;6101144;23;20793;-76
2022/07/23 10:09:39;;;;;;;1.50;0.90;;;28.60;76.70;;;;;;6094507;23;20426;-76
2022/07/23 10:15:08;;;;;;;1.47;0.90;;;28.90;74.30;;;;;;6054480;23;20445;-75
2022/07/23 10:17:35;;;;;;;1.47;0.80;;;29.00;76.70;;;;;;6102203;23;21123;-75
2022/07/23 10:20:05;;;;;;;2.07;1.10;;;29.20;72.50;;;;;;6098100;23;20481;-75
2022/07/23 10:22:37;;;;;;;1.50;0.80;;;29.30;72.50;;;;;;6096052;23;20790;-74
2022/07/23 10:25:25;;;;;;;1.47;0.80;;;29.40;74.70;;;;;;6096469;23;20478;-77
2022/07/23 10:28:14;;;;;;;1.50;0.80;;;29.50;71.10;;;;;;6106953;23;20551;-74
2022/07/23 10:30:53;;;;;;;1.47;0.80;;;29.60;71.00;;;;;;6098740;23;20456;-78
2022/07/23 10:33:33;;;;;;;1.50;0.80;;;29.60;71.50;;;;;;6084820;23;20796;-76
2022/07/23 10:36:13;;;;;;;1.43;0.80;;;29.70;71.70;;;;;;6095603;23;20444;-75
2022/07/23 10:38:51;;;;;;;1.43;0.80;;;29.90;71.10;;;;;;6115276;23;20406;-76
2022/07/23 10:41:33;;;;;;;1.50;0.80;;;30.00;70.40;;;;;;6089680;23;20504;-75
2022/07/23 10:44:13;;;;;;;1.43;0.80;;;30.20;70.40;;;;;;6109586;23;20425;-77
2022/07/23 10:47:07;;;;;;;1.43;0.80;;;30.20;70.10;;;;;;6086517;23;20551;-76
2022/07/23 10:49:35;;;;;;;1.43;0.80;;;30.30;71.00;;;;;;6102828;23;20421;-76
2022/07/23 10:52:27;;;;;;;1.43;0.80;;;30.50;70.60;;;;;;6106511;23;20484;-76
2022/07/23 10:54:57;;;;;;;1.50;0.80;;;30.60;70.50;;;;;;6097953;23;20410;-80
2022/07/23 10:57:30;;;;;;;1.50;0.80;;;30.80;68.30;;;;;;6106042;23;20437;-75
2022/07/23 11:00:24;;;;;;;1.50;0.80;;;31.00;67.30;;;;;;6100713;23;20442;-77
2022/07/23 11:02:57;;;;;;;1.50;0.90;;;31.20;67.30;;;;;;6104343;23;20568;-76
2022/07/23 11:05:26;;;;;;;1.43;0.80;;;31.50;68.00;;;;;;6097999;23;20457;-76
2022/07/23 11:08:19;;;;;;;1.50;0.80;;;31.50;67.20;;;;;;6104589;23;20481;-76
2022/07/23 11:10:50;;;;;;;1.40;0.80;;;31.40;65.50;;;;;;6092782;23;20402;-76
2022/07/23 11:13:32;;;;;;;1.43;0.80;;;31.40;66.70;;;;;;6115400;23;20445;-76
2022/07/23 11:16:10;;;;;;;1.50;0.80;;;31.40;67.40;;;;;;6094054;23;20524;-75
2022/07/23 11:19:10;;;;;;;1.47;0.80;;;31.30;66.00;;;;;;6092283;23;20437;-78
2022/07/23 11:21:47;;;;;;;1.47;0.80;;;31.40;66.50;;;;;;6080543;23;20589;-79
2022/07/23 11:24:19;;;;;;;1.50;0.90;;;31.50;67.90;;;;;;6104923;23;20964;-76
2022/07/23 11:26:57;;;;;;;1.40;0.80;;;31.50;65.90;;;;;;6096654;23;20756;-76
2022/07/23 11:29:44;;;;;;;1.40;0.80;;;31.40;66.80;;;;;;6102668;23;20432;-75
2022/07/23 11:32:25;;;;;;;1.47;0.80;;;31.50;68.00;;;;;;6093410;23;20432;-77
2022/07/23 11:35:01;;;;;;;1.47;0.80;;;31.50;66.30;;;;;;6096834;23;20593;-76
2022/07/23 11:37:34;;;;;;;1.50;1.10;;;31.50;65.70;;;;;;6102695;23;20459;-75
2022/07/23 11:40:07;;;;;;;1.47;0.80;;;31.70;67.40;;;;;;6108597;23;20518;-76
2022/07/23 11:42:34;;;;;;;1.47;0.80;;;31.60;64.00;;;;;;6106041;23;20198;-74
2022/07/23 11:45:02;;;;;;;1.47;0.80;;;31.60;64.40;;;;;;6096184;23;20186;-76
2022/07/23 11:47:32;;;;;;;1.43;0.80;;;31.50;66.20;;;;;;6104184;23;20217;-76
2022/07/23 11:50:02;;;;;;;1.40;0.80;;;31.60;65.00;;;;;;6100347;23;20177;-76
2022/07/23 11:52:30;;;;;;;1.50;0.80;;;31.70;64.30;;;;;;6102451;23;20767;-75
2022/07/23 11:55:00;;;;;;;1.60;1.10;;;31.80;65.50;;;;;;6110844;23;20430;-77
2022/07/23 11:57:37;;;;;;;1.50;0.90;;;31.80;64.90;;;;;;6095023;23;20743;-75
2022/07/23 12:00:08;;;;;;;1.80;1.33;;;31.80;64.40;;;;;;6100263;23;20174;-76
2022/07/23 12:02:50;;;;;;;1.70;1.60;;;31.90;66.10;;;;;;6097211;23;20434;-76
2022/07/23 12:05:20;;;;;;;1.70;1.47;;;32.10;65.90;;;;;;6100451;23;20300;-74
2022/07/23 12:07:50;;;;;;;1.50;0.90;;;32.10;65.10;;;;;;6107406;23;20471;-74
2022/07/23 12:10:20;;;;;;;1.47;0.80;;;32.10;61.90;;;;;;6099707;23;20182;-76
2022/07/23 12:12:53;;;;;;;1.40;0.80;;;32.20;63.30;;;;;;6107649;23;20217;-75
2022/07/23 12:15:42;;;;;;;1.43;0.80;;;32.30;63.60;;;;;;6100155;23;20206;-75
2022/07/23 12:18:12;;;;;;;1.50;0.80;;;32.30;62.50;;;;;;6107382;23;20214;-76
2022/07/23 12:20:43;;;;;;;1.50;0.90;;;32.20;62.20;;;;;;6111454;23;20198;-76
2022/07/23 12:23:12;;;;;;;1.47;0.80;;;32.10;63.40;;;;;;6098622;23;20552;-77
2022/07/23 12:25:41;;;;;;;1.50;0.90;;;32.10;64.10;;;;;;6108772;23;20226;-76
2022/07/23 12:28:12;;;;;;;1.43;0.80;;;31.90;62.70;;;;;;6098874;23;20182;-76
2022/07/23 12:30:42;;;;;;;1.50;0.90;;;31.90;62.70;;;;;;6098306;23;20170;-76
2022/07/23 12:33:17;;;;;;;1.40;0.80;;;32.00;63.40;;;;;;6099071;23;20949;-73
2022/07/23 12:35:49;;;;;;;1.43;0.80;;;32.10;63.80;;;;;;6097510;23;20619;-76
2022/07/23 12:38:19;;;;;;;1.43;0.80;;;32.20;63.50;;;;;;6084214;23;20225;-77
2022/07/23 12:40:48;;;;;;;1.43;0.80;;;32.40;62.60;;;;;;6098394;23;20293;-78
2022/07/23 12:43:29;;;;;;;1.47;0.80;;;32.50;62.70;;;;;;6122782;23;20667;-77
2022/07/23 12:46:04;;;;;;;1.50;0.90;;;32.40;62.10;;;;;;6098009;23;20213;-78
2022/07/23 12:48:37;;;;;;;1.47;0.80;;;32.30;62.90;;;;;;6120837;23;20190;-75
2022/07/23 12:51:07;;;;;;;1.43;0.80;;;32.50;64.00;;;;;;6096243;23;20274;-76
2022/07/23 12:53:41;;;;;;;1.47;0.80;;;32.50;62.50;;;;;;6130799;23;20202;-78
2022/07/23 12:56:14;;;;;;;1.43;0.80;;;32.60;63.30;;;;;;6110516;23;20238;-77
2022/07/23 12:58:54;;;;;;;1.43;0.80;;;32.70;62.20;;;;;;6097242;23;20245;-75
2022/07/23 13:01:30;;;;;;;1.47;0.80;;;32.80;62.00;;;;;;6098036;23;20198;-76
2022/07/23 13:04:05;;;;;;;1.60;1.43;;;33.20;61.60;;;;;;6099978;23;20594;-76
2022/07/23 13:06:35;;;;;;;1.43;0.80;;;33.20;60.30;;;;;;6109016;23;20202;-77